createdAt,value
2023-03-02T00:01:43.617Z,18.30
2023-03-02T00:11:52.517Z,17.30
2023-03-02T00:14:19.935Z,15.45
2023-03-02T00:16:47.031Z,17.40
2023-03-02T00:19:13.725Z,22.42
2023-03-02T00:21:41.258Z,22.88
2023-03-02T00:24:08.389Z,20.75
2023-03-02T00:38:09.160Z,25.27
2023-03-02T00:40:36.177Z,32.22
2023-03-02T00:43:03.072Z,32.10
2023-03-02T00:45:29.950Z,27.55
2023-03-02T00:47:56.669Z,34.97
2023-03-02T01:13:20.451Z,43.80
2023-03-02T01:15:47.116Z,53.92
2023-03-02T01:18:14.089Z,46.08
2023-03-02T02:06:11.514Z,91.53
2023-03-02T02:08:38.750Z,81.45
2023-03-02T02:11:06.837Z,69.43
2023-03-02T02:13:33.672Z,83.72
2023-03-02T02:16:00.667Z,66.03
2023-03-02T02:18:27.511Z,79.93
2023-03-02T02:33:50.342Z,86.47
2023-03-02T02:36:22.368Z,75.30
2023-03-02T02:38:52.701Z,74.70
2023-03-02T02:41:24.441Z,76.40
2023-03-02T02:43:51.894Z,82.47
2023-03-02T02:57:42.234Z,59.85
2023-03-02T03:00:19.143Z,80.10
2023-03-02T03:02:51.466Z,64.90
2023-03-02T03:05:18.252Z,84.25
2023-03-02T03:07:45.502Z,80.07
2023-03-02T03:10:34.951Z,81.28
2023-03-02T04:18:17.754Z,88.97
2023-03-02T04:20:44.438Z,73.30
2023-03-02T04:23:11.237Z,91.15
2023-03-02T04:48:34.756Z,85.47
2023-03-02T04:51:01.490Z,81.15
2023-03-02T04:53:28.122Z,80.80
2023-03-02T04:55:54.808Z,78.43
2023-03-02T04:58:21.541Z,79.80
2023-03-02T05:26:57.648Z,72.00
2023-03-02T05:29:24.366Z,71.55
2023-03-02T05:31:51.357Z,80.13
2023-03-02T05:46:04.950Z,81.30
2023-03-02T05:48:32.357Z,88.13
2023-03-02T05:50:59.282Z,75.60
2023-03-02T05:53:25.988Z,75.82
2023-03-02T06:14:59.259Z,82.90
2023-03-02T06:17:26.456Z,78.30
2023-03-02T06:19:53.240Z,69.88
2023-03-02T06:22:19.887Z,68.65
2023-03-02T06:24:46.529Z,80.80
2023-03-02T10:10:37.716Z,50.17
2023-03-02T10:13:29.747Z,49.88
2023-03-02T10:16:02.494Z,45.03
2023-03-02T10:18:30.879Z,46.70
2023-03-02T10:25:12.769Z,45.42
2023-03-02T10:31:28.946Z,42.63
2023-03-02T11:51:58.097Z,32.00
2023-03-02T11:54:46.034Z,27.08
2023-03-02T11:57:25.421Z,30.73
2023-03-02T11:59:53.240Z,36.10
2023-03-02T12:02:21.224Z,29.58
2023-03-02T12:16:38.075Z,24.40
2023-03-02T12:19:17.015Z,28.00
2023-03-02T12:22:00.593Z,27.80
2023-03-02T12:24:33.051Z,25.27
2023-03-02T12:43:06.722Z,17.25
2023-03-02T12:45:54.913Z,20.38
2023-03-02T12:48:43.023Z,22.27
2023-03-02T12:51:23.162Z,16.23
2023-03-02T12:54:01.236Z,19.27
2023-03-02T13:56:50.060Z,22.90
2023-03-02T13:59:18.545Z,26.13
2023-03-02T14:01:45.362Z,21.15
2023-03-02T14:04:17.917Z,23.70
2023-03-02T14:06:47.825Z,24.35
2023-03-02T14:13:10.500Z,24.27
2023-03-02T14:23:19.731Z,25.08
2023-03-02T14:25:46.735Z,26.50
2023-03-02T14:28:19.873Z,27.73
2023-03-02T14:30:46.850Z,27.23
2023-03-02T14:36:57.466Z,34.90
2023-03-02T14:43:05.460Z,21.05
2023-03-02T15:16:22.221Z,40.17
2023-03-02T15:18:50.355Z,38.80
2023-03-02T15:21:21.052Z,38.90
2023-03-02T15:23:47.718Z,34.47
2023-03-02T15:26:14.745Z,22.33
2023-03-02T15:28:42.071Z,26.23
2023-03-02T15:31:11.075Z,30.95
2023-03-02T15:33:37.790Z,38.00
2023-03-02T15:43:51.903Z,35.00
2023-03-02T15:46:19.956Z,23.33
2023-03-02T15:48:46.702Z,28.73
2023-03-02T15:51:13.601Z,36.97
2023-03-02T16:09:04.963Z,34.92
2023-03-02T16:11:31.794Z,33.75
2023-03-02T16:13:58.385Z,33.50
2023-03-02T16:16:25.210Z,42.67
2023-03-02T16:18:56.754Z,41.08
2023-03-02T18:37:41.194Z,36.65
2023-03-02T18:40:09.280Z,44.55
2023-03-02T18:42:36.029Z,44.50
2023-03-02T18:45:02.854Z,43.70
2023-03-02T18:47:30.250Z,38.30
2023-03-02T18:49:58.471Z,38.92
2023-03-02T19:01:45.441Z,43.03
2023-03-02T19:04:13.256Z,43.83
2023-03-02T19:06:40.591Z,38.08
2023-03-02T19:09:07.545Z,43.28
2023-03-02T19:23:12.036Z,38.17
2023-03-02T19:25:39.317Z,47.22
2023-03-02T19:28:06.678Z,40.88
2023-03-02T19:30:34.538Z,46.85
2023-03-02T19:33:01.881Z,49.75
2023-03-02T19:35:29.921Z,42.60
2023-03-02T19:37:56.836Z,45.15
2023-03-02T20:03:19.984Z,42.65
2023-03-02T20:05:46.892Z,43.65
2023-03-02T20:08:14.817Z,58.83
2023-03-02T22:00:00.731Z,54.03
2023-03-02T22:02:27.344Z,61.45
2023-03-02T22:04:54.106Z,55.28
2023-03-02T22:07:20.753Z,55.53
2023-03-02T22:09:47.392Z,53.47
2023-03-02T22:21:38.826Z,66.60
2023-03-02T22:54:17.952Z,58.30
2023-03-02T22:56:48.339Z,61.47
2023-03-02T22:59:26.307Z,57.47
2023-03-02T23:21:34.509Z,63.28
2023-03-02T23:24:02.431Z,65.75
2023-03-02T23:26:29.218Z,63.47
2023-03-02T23:28:56.157Z,61.33
2023-03-02T23:47:04.232Z,57.35
2023-03-02T23:49:31.083Z,49.67
2023-03-02T23:51:57.657Z,62.45
2023-03-02T23:54:24.630Z,49.38
